createdAt,value
2023-03-03T00:00:12.963Z,19.15
2023-03-03T00:02:40.040Z,16.65
2023-03-03T00:05:07.330Z,16.65
2023-03-03T00:07:34.877Z,17.15
2023-03-03T00:10:02.018Z,14.85
2023-03-03T00:12:30.409Z,16.55
2023-03-03T00:14:57.190Z,15.38
2023-03-03T00:17:26.326Z,15.55
2023-03-03T00:19:54.720Z,16.27
2023-03-03T00:22:33.646Z,16.40
2023-03-03T00:25:01.455Z,18.45
2023-03-03T00:27:34.646Z,19.35
2023-03-03T00:30:01.500Z,19.15
2023-03-03T00:32:31.916Z,20.75
2023-03-03T00:35:03.717Z,19.40
2023-03-03T00:37:35.153Z,18.02
2023-03-03T00:40:40.525Z,18.98
2023-03-03T00:43:20.695Z,18.80
2023-03-03T00:45:57.804Z,18.80
2023-03-03T00:48:37.015Z,19.73
2023-03-03T00:51:17.291Z,17.83
2023-03-03T00:53:44.528Z,18.73
2023-03-03T00:56:11.393Z,21.83
2023-03-03T00:58:38.105Z,20.58
2023-03-03T01:01:05.141Z,18.23
2023-03-03T01:03:32.786Z,17.13
2023-03-03T01:06:01.095Z,19.30
2023-03-03T01:08:28.337Z,20.27
2023-03-03T01:10:56.563Z,18.75
2023-03-03T01:13:26.330Z,18.10
2023-03-03T01:15:53.542Z,18.25
2023-03-03T01:18:20.944Z,18.83
2023-03-03T01:20:47.832Z,21.48
2023-03-03T01:23:14.622Z,20.23
2023-03-03T01:25:41.725Z,20.05
2023-03-03T01:28:08.718Z,20.17
2023-03-03T01:30:35.537Z,20.98
2023-03-03T01:33:02.393Z,20.20
2023-03-03T01:35:30.108Z,21.25
2023-03-03T01:37:57.124Z,21.85
2023-03-03T01:40:26.294Z,21.85
2023-03-03T01:42:53.481Z,20.63
2023-03-03T01:45:24.750Z,22.00
2023-03-03T01:48:04.777Z,20.77
2023-03-03T01:50:40.271Z,21.65
2023-03-03T01:53:10.369Z,21.67
2023-03-03T01:55:43.447Z,19.88
2023-03-03T01:58:50.891Z,23.60
2023-03-03T02:01:22.290Z,23.45
2023-03-03T02:03:49.389Z,23.17
2023-03-03T02:06:18.204Z,22.55
2023-03-03T02:09:08.061Z,23.52
2023-03-03T02:11:36.368Z,23.67
2023-03-03T02:14:03.752Z,25.25
2023-03-03T02:16:31.033Z,24.35
2023-03-03T02:18:58.886Z,20.48
2023-03-03T02:21:28.135Z,23.58
2023-03-03T02:24:03.555Z,23.88
2023-03-03T02:26:31.616Z,24.25
2023-03-03T02:28:58.396Z,24.05
2023-03-03T02:31:28.289Z,19.75
2023-03-03T02:33:55.380Z,24.00
2023-03-03T02:36:30.294Z,23.58
2023-03-03T02:39:21.479Z,24.35
2023-03-03T02:41:59.490Z,24.42
2023-03-03T02:44:28.425Z,23.00
2023-03-03T02:46:55.585Z,22.73
2023-03-03T02:49:24.184Z,26.38
2023-03-03T02:51:51.907Z,27.17
2023-03-03T02:54:20.044Z,27.48
2023-03-03T02:56:48.742Z,26.13
2023-03-03T02:59:16.140Z,28.85
2023-03-03T03:01:43.163Z,27.90
2023-03-03T03:04:21.285Z,28.00
2023-03-03T03:06:48.291Z,28.08
2023-03-03T03:09:15.685Z,27.90
2023-03-03T03:11:43.267Z,28.73
2023-03-03T03:14:11.240Z,30.90
2023-03-03T03:16:38.181Z,30.00
2023-03-03T03:19:05.766Z,30.75
2023-03-03T03:21:34.206Z,25.92
2023-03-03T03:24:02.235Z,25.73
2023-03-03T03:26:29.551Z,25.08
2023-03-03T03:28:56.459Z,26.50
2023-03-03T03:31:23.742Z,27.70
2023-03-03T03:33:50.567Z,26.52
2023-03-03T03:36:17.671Z,26.42
2023-03-03T03:38:45.274Z,29.30
2023-03-03T03:41:12.489Z,26.65
2023-03-03T03:43:40.324Z,29.27
2023-03-03T03:46:07.463Z,29.13
2023-03-03T03:48:36.732Z,26.83
2023-03-03T03:51:03.724Z,30.33
2023-03-03T03:53:30.742Z,29.67
2023-03-03T03:55:57.729Z,30.83
2023-03-03T03:58:25.361Z,28.20
2023-03-03T04:00:52.703Z,28.45
2023-03-03T04:03:20.689Z,29.30
2023-03-03T04:05:47.556Z,29.30
2023-03-03T04:08:14.380Z,30.63
2023-03-03T04:10:42.236Z,33.60
2023-03-03T04:13:09.539Z,33.88
2023-03-03T04:15:36.361Z,28.25
2023-03-03T04:18:03.778Z,31.00
2023-03-03T04:20:30.740Z,29.60
2023-03-03T04:22:58.052Z,30.80
2023-03-03T04:25:25.241Z,33.10
2023-03-03T04:27:52.984Z,34.15
2023-03-03T04:30:20.092Z,34.42
2023-03-03T04:32:47.603Z,31.52
2023-03-03T04:35:14.888Z,29.10
2023-03-03T04:37:42.046Z,30.80
2023-03-03T04:40:09.459Z,32.50
2023-03-03T04:42:36.361Z,28.42
2023-03-03T04:45:03.777Z,31.02
2023-03-03T04:47:31.237Z,33.10
2023-03-03T04:49:58.508Z,33.33
2023-03-03T04:52:25.996Z,31.90
2023-03-03T04:54:55.512Z,30.48
2023-03-03T04:57:22.431Z,31.35
2023-03-03T04:59:49.321Z,27.55
2023-03-03T05:02:18.123Z,32.65
2023-03-03T05:04:45.392Z,31.10
2023-03-03T05:07:12.161Z,29.48
2023-03-03T05:09:39.354Z,29.45
2023-03-03T05:12:06.500Z,27.92
2023-03-03T05:14:34.319Z,26.65
2023-03-03T05:17:05.852Z,27.17
2023-03-03T05:22:22.158Z,25.90
2023-03-03T05:24:56.960Z,23.33
2023-03-03T05:27:24.906Z,26.45
2023-03-03T05:29:57.161Z,32.33
2023-03-03T05:32:27.794Z,32.38
2023-03-03T05:35:06.197Z,25.83
2023-03-03T05:40:22.699Z,30.92
2023-03-03T05:42:50.079Z,29.63
2023-03-03T05:45:32.827Z,30.65
2023-03-03T05:48:19.988Z,32.38
2023-03-03T05:50:49.334Z,30.80
2023-03-03T05:53:16.218Z,31.50
2023-03-03T05:55:46.738Z,29.38
2023-03-03T06:01:06.001Z,25.63
2023-03-03T06:03:34.568Z,25.25
2023-03-03T06:06:02.023Z,28.17
2023-03-03T06:08:42.837Z,29.90
2023-03-03T06:11:14.609Z,28.73
2023-03-03T06:13:44.347Z,30.88
2023-03-03T06:16:14.318Z,30.20
2023-03-03T06:18:42.149Z,31.95
2023-03-03T06:21:10.077Z,31.77
2023-03-03T06:23:46.843Z,30.60
2023-03-03T06:29:10.032Z,33.42
2023-03-03T06:31:51.518Z,29.45
2023-03-03T06:34:30.666Z,30.15
2023-03-03T06:37:05.459Z,31.17
2023-03-03T06:39:40.188Z,34.00
2023-03-03T06:42:32.533Z,34.03
2023-03-03T06:44:59.734Z,34.85
2023-03-03T06:47:28.062Z,36.17
2023-03-03T06:49:58.085Z,34.50
2023-03-03T06:52:26.669Z,34.50
2023-03-03T06:55:00.680Z,35.75
2023-03-03T06:57:29.531Z,38.13
2023-03-03T06:59:59.904Z,38.00
2023-03-03T07:02:40.658Z,39.17
2023-03-03T07:05:17.937Z,36.63
2023-03-03T07:07:47.671Z,34.13
2023-03-03T07:10:31.134Z,35.30
2023-03-03T07:13:04.181Z,37.83
2023-03-03T07:15:36.239Z,34.70
2023-03-03T07:18:26.566Z,37.35
2023-03-03T07:20:58.034Z,37.10
2023-03-03T07:23:29.681Z,36.60
2023-03-03T07:25:57.384Z,35.25
2023-03-03T07:28:30.689Z,38.22
2023-03-03T07:30:58.086Z,37.50
2023-03-03T07:33:43.432Z,36.55
2023-03-03T07:36:29.163Z,35.33
2023-03-03T07:38:59.187Z,33.55
2023-03-03T07:41:28.944Z,34.92
2023-03-03T07:43:59.638Z,35.17
2023-03-03T07:46:31.573Z,36.05
2023-03-03T07:49:00.626Z,36.23
2023-03-03T07:51:42.170Z,33.85
2023-03-03T07:54:25.952Z,33.28
2023-03-03T07:56:55.519Z,34.92
2023-03-03T07:59:24.870Z,33.92
2023-03-03T08:01:57.886Z,33.55
2023-03-03T08:04:51.244Z,32.35
2023-03-03T08:07:19.172Z,32.40
2023-03-03T08:10:01.943Z,34.97
2023-03-03T08:12:34.729Z,32.80
2023-03-03T08:15:20.316Z,33.10
2023-03-03T08:17:50.990Z,33.70
2023-03-03T08:20:42.817Z,34.50
2023-03-03T08:23:09.639Z,34.10
2023-03-03T08:25:41.819Z,34.53
2023-03-03T08:28:09.852Z,35.22
2023-03-03T08:30:38.303Z,31.35
2023-03-03T08:33:05.427Z,33.05
2023-03-03T08:35:33.088Z,32.25
2023-03-03T08:38:00.493Z,33.38
2023-03-03T08:40:31.262Z,30.65
2023-03-03T08:43:01.547Z,31.70
2023-03-03T08:45:28.768Z,32.20
2023-03-03T08:47:56.044Z,31.98
2023-03-03T08:50:26.625Z,31.40
2023-03-03T08:52:55.261Z,31.98
2023-03-03T08:55:29.902Z,31.30
2023-03-03T08:57:59.818Z,30.30
2023-03-03T09:00:26.860Z,31.80
2023-03-03T09:02:57.767Z,31.17
2023-03-03T09:05:25.150Z,33.08
2023-03-03T09:07:53.320Z,30.52
2023-03-03T09:10:27.620Z,33.20
2023-03-03T09:13:00.907Z,30.38
2023-03-03T09:15:31.133Z,32.10
2023-03-03T09:18:16.363Z,31.73
2023-03-03T09:20:51.517Z,30.23
2023-03-03T09:23:37.149Z,31.45
2023-03-03T09:26:22.554Z,30.38
2023-03-03T09:28:50.113Z,31.48
2023-03-03T09:31:31.829Z,31.33
2023-03-03T09:34:02.083Z,29.42
2023-03-03T09:36:32.024Z,31.48
2023-03-03T09:38:59.437Z,31.42
2023-03-03T09:41:34.085Z,31.77
2023-03-03T09:44:22.128Z,30.40
2023-03-03T09:47:26.886Z,29.30
2023-03-03T09:50:03.583Z,31.75
2023-03-03T09:52:34.131Z,31.52
2023-03-03T09:55:13.149Z,29.48
2023-03-03T09:58:10.356Z,31.20
2023-03-03T10:00:54.167Z,29.98
2023-03-03T10:03:49.126Z,31.60
2023-03-03T10:06:40.671Z,32.33
2023-03-03T10:12:25.604Z,31.40
2023-03-03T10:15:03.519Z,29.02
2023-03-03T10:17:36.018Z,32.10
2023-03-03T10:20:47.617Z,31.98
2023-03-03T10:23:56.290Z,29.58
2023-03-03T10:26:44.811Z,30.05
2023-03-03T10:29:31.003Z,27.13
2023-03-03T10:31:59.535Z,27.95
2023-03-03T10:34:54.279Z,28.25
2023-03-03T10:37:33.125Z,26.85
2023-03-03T10:40:10.910Z,26.25
2023-03-03T10:42:47.550Z,25.77
2023-03-03T10:45:32.466Z,25.45
2023-03-03T10:48:21.387Z,25.17
2023-03-03T10:51:17.780Z,24.70
2023-03-03T10:54:07.041Z,25.90
2023-03-03T10:56:53.329Z,24.63
2023-03-03T10:59:57.760Z,26.08
2023-03-03T11:02:30.509Z,26.98
2023-03-03T11:07:43.026Z,26.95
2023-03-03T11:10:22.683Z,27.05
2023-03-03T11:13:03.596Z,26.10
2023-03-03T11:15:53.346Z,24.63
2023-03-03T11:18:36.930Z,24.48
2023-03-03T11:21:14.904Z,24.58
2023-03-03T11:24:05.144Z,25.15
2023-03-03T11:26:53.616Z,24.50
2023-03-03T11:29:52.508Z,23.83
2023-03-03T11:32:28.788Z,23.38
2023-03-03T11:35:25.507Z,24.52
2023-03-03T11:38:11.864Z,26.42
2023-03-03T11:41:22.971Z,23.20
2023-03-03T11:43:54.232Z,23.20
2023-03-03T11:46:30.200Z,24.95
2023-03-03T11:49:18.360Z,23.55
2023-03-03T11:52:32.768Z,24.40
2023-03-03T11:55:18.991Z,25.30
2023-03-03T11:58:01.173Z,24.48
2023-03-03T12:00:44.707Z,24.13
2023-03-03T12:03:19.830Z,24.13
2023-03-03T12:06:10.893Z,26.15
2023-03-03T12:08:58.193Z,24.30
2023-03-03T12:11:40.082Z,27.52
2023-03-03T12:14:36.370Z,25.65
2023-03-03T12:17:29.174Z,25.02
2023-03-03T12:20:03.583Z,25.73
2023-03-03T12:23:05.890Z,27.42
2023-03-03T12:26:02.189Z,25.63
2023-03-03T12:28:40.957Z,26.48
2023-03-03T12:31:41.433Z,23.20
2023-03-03T12:34:18.277Z,24.98
2023-03-03T12:37:05.325Z,25.20
2023-03-03T12:40:09.687Z,22.35
2023-03-03T12:42:54.204Z,20.27
2023-03-03T12:45:33.339Z,21.98
2023-03-03T12:48:00.705Z,22.80
2023-03-03T12:50:48.741Z,23.45
2023-03-03T13:07:38.240Z,24.42
2023-03-03T13:37:03.120Z,25.33
2023-03-03T13:57:56.014Z,22.65
2023-03-03T14:00:57.955Z,22.85
2023-03-03T14:03:33.892Z,22.67
2023-03-03T14:06:03.747Z,22.75
2023-03-03T14:08:49.452Z,22.33
2023-03-03T14:11:58.165Z,22.08
2023-03-03T14:14:43.559Z,21.15
2023-03-03T14:17:25.955Z,23.38
2023-03-03T14:20:14.427Z,20.08
2023-03-03T14:22:51.403Z,22.30
2023-03-03T14:25:19.453Z,22.25
2023-03-03T14:27:51.918Z,23.27
2023-03-03T14:30:24.927Z,23.80
2023-03-03T14:33:02.292Z,23.75
2023-03-03T14:35:41.899Z,22.35
2023-03-03T14:38:09.700Z,21.98
2023-03-03T14:40:39.013Z,24.20
2023-03-03T14:43:19.294Z,23.20
2023-03-03T14:45:46.995Z,20.55
2023-03-03T14:48:25.574Z,21.10
2023-03-03T14:51:04.827Z,21.38
2023-03-03T14:53:36.025Z,21.00
2023-03-03T14:56:28.509Z,19.45
2023-03-03T14:59:16.091Z,20.83
2023-03-03T15:01:44.105Z,18.02
2023-03-03T15:04:26.412Z,17.85
2023-03-03T15:06:55.938Z,17.38
2023-03-03T15:09:34.942Z,19.05
2023-03-03T15:12:04.216Z,19.20
2023-03-03T15:14:46.073Z,18.40
2023-03-03T15:18:07.093Z,17.02
2023-03-03T15:20:39.501Z,18.52
2023-03-03T15:23:32.173Z,16.63
2023-03-03T15:26:06.927Z,15.35
2023-03-03T15:28:46.823Z,17.00
2023-03-03T15:31:37.116Z,14.93
2023-03-03T15:34:54.516Z,14.57
2023-03-03T15:37:53.938Z,14.40
2023-03-03T15:40:32.966Z,14.98
2023-03-03T15:43:27.883Z,14.82
2023-03-03T15:46:04.035Z,13.57
2023-03-03T15:48:43.684Z,12.23
2023-03-03T15:51:37.665Z,14.75
2023-03-03T15:54:20.354Z,14.27
2023-03-03T15:57:03.321Z,14.55
2023-03-03T16:00:24.013Z,14.95
2023-03-03T16:03:01.364Z,15.95
2023-03-03T16:05:40.359Z,15.80
2023-03-03T16:08:14.435Z,13.50
2023-03-03T16:10:56.284Z,15.30
2023-03-03T16:13:55.228Z,15.57
2023-03-03T16:16:31.390Z,13.75
2023-03-03T16:19:12.228Z,15.05
2023-03-03T16:22:12.994Z,14.77
2023-03-03T16:24:55.334Z,16.15
2023-03-03T16:27:44.190Z,14.13
2023-03-03T16:30:26.400Z,16.00
2023-03-03T16:33:18.920Z,15.98
2023-03-03T16:36:17.813Z,16.90
2023-03-03T16:38:52.421Z,16.40
2023-03-03T16:41:59.248Z,16.98
2023-03-03T16:45:07.656Z,14.55
2023-03-03T16:47:57.965Z,15.18
2023-03-03T16:50:37.696Z,15.32
2023-03-03T16:53:27.581Z,16.25
2023-03-03T16:56:36.176Z,16.25
2023-03-03T16:59:15.319Z,15.13
2023-03-03T17:01:55.946Z,16.58
2023-03-03T17:04:51.949Z,16.40
2023-03-03T17:07:21.859Z,17.02
2023-03-03T17:10:05.877Z,17.70
2023-03-03T17:12:49.914Z,16.55
2023-03-03T17:15:31.774Z,18.95
2023-03-03T17:18:30.272Z,17.20
2023-03-03T17:20:59.238Z,18.98
2023-03-03T17:23:45.596Z,16.35
2023-03-03T17:26:16.445Z,17.52
2023-03-03T17:29:09.193Z,17.08
2023-03-03T17:32:12.302Z,16.97
2023-03-03T17:35:15.210Z,15.82
2023-03-03T17:37:59.986Z,15.20
2023-03-03T17:40:46.296Z,15.65
2023-03-03T17:43:24.013Z,16.40
2023-03-03T17:45:52.863Z,16.13
2023-03-03T17:48:32.096Z,15.25
2023-03-03T17:51:14.108Z,16.40
2023-03-03T17:54:00.131Z,16.52
2023-03-03T17:56:35.278Z,16.27
2023-03-03T17:59:28.120Z,16.15
2023-03-03T18:02:11.314Z,16.10
2023-03-03T18:05:20.191Z,14.88
2023-03-03T18:08:23.418Z,16.38
2023-03-03T18:11:15.380Z,16.75
2023-03-03T18:13:44.986Z,15.52
2023-03-03T18:16:36.491Z,15.82
2023-03-03T18:19:17.353Z,16.10
2023-03-03T18:22:04.352Z,16.05
2023-03-03T18:24:57.259Z,15.82
2023-03-03T18:27:25.665Z,15.80
2023-03-03T18:30:26.292Z,15.20
2023-03-03T18:32:56.270Z,15.27
2023-03-03T18:35:49.560Z,15.32
2023-03-03T18:38:16.682Z,16.48
2023-03-03T18:41:03.250Z,16.10
2023-03-03T18:43:47.854Z,15.77
2023-03-03T18:46:24.459Z,17.55
2023-03-03T18:49:06.613Z,18.05
2023-03-03T18:51:45.181Z,17.73
2023-03-03T18:54:18.580Z,19.70
2023-03-03T18:56:49.727Z,18.35
2023-03-03T18:59:40.726Z,19.38
2023-03-03T19:02:35.880Z,17.88
2023-03-03T19:05:05.782Z,20.20
2023-03-03T19:07:52.048Z,19.50
2023-03-03T19:10:24.410Z,19.27
2023-03-03T19:12:53.918Z,19.00
2023-03-03T19:15:29.869Z,19.55
2023-03-03T19:18:18.569Z,19.17
2023-03-03T19:21:12.269Z,20.02
2023-03-03T19:24:03.813Z,20.23
2023-03-03T19:26:44.710Z,20.55
2023-03-03T19:29:48.917Z,18.05
2023-03-03T19:32:31.194Z,19.00
2023-03-03T19:35:39.882Z,20.02
2023-03-03T19:38:32.497Z,20.33
2023-03-03T19:41:10.118Z,19.35
2023-03-03T19:43:52.670Z,20.05
2023-03-03T19:47:04.023Z,21.40
2023-03-03T19:49:40.064Z,18.77
2023-03-03T19:52:42.145Z,19.25
2023-03-03T19:55:41.828Z,20.42
2023-03-03T22:21:15.320Z,24.70
2023-03-03T22:23:47.875Z,25.98
2023-03-03T22:26:19.034Z,23.42
2023-03-03T22:28:45.847Z,23.73
2023-03-03T22:31:14.678Z,22.88
2023-03-03T22:33:45.484Z,24.67
2023-03-03T22:36:19.080Z,23.70
2023-03-03T22:38:46.974Z,23.20
2023-03-03T22:41:15.950Z,24.60
2023-03-03T22:43:43.255Z,23.50
2023-03-03T22:46:14.814Z,22.35
2023-03-03T22:48:45.303Z,22.83
2023-03-03T22:51:20.346Z,24.55
2023-03-03T22:53:49.351Z,24.17
2023-03-03T22:56:19.135Z,25.90
2023-03-03T22:58:47.493Z,23.10
2023-03-03T23:01:19.759Z,24.40
2023-03-03T23:03:46.730Z,23.60
2023-03-03T23:06:13.895Z,23.60
2023-03-03T23:08:43.340Z,27.73
2023-03-03T23:11:10.175Z,25.10
2023-03-03T23:13:40.652Z,25.42
2023-03-03T23:16:10.042Z,25.70
2023-03-03T23:18:41.035Z,26.38
2023-03-03T23:21:09.649Z,27.45
2023-03-03T23:23:41.913Z,24.15
2023-03-03T23:26:08.746Z,27.80
2023-03-03T23:28:38.387Z,25.40
2023-03-03T23:31:07.973Z,25.17
2023-03-03T23:33:36.446Z,25.98
2023-03-03T23:36:04.082Z,26.55
2023-03-03T23:38:30.827Z,27.17
2023-03-03T23:40:57.605Z,25.55
2023-03-03T23:43:24.625Z,24.02
2023-03-03T23:45:52.665Z,27.48
2023-03-03T23:48:20.814Z,26.95
2023-03-03T23:50:48.911Z,25.95
2023-03-03T23:53:17.345Z,25.52
2023-03-03T23:55:46.404Z,24.52
2023-03-03T23:58:13.480Z,25.92
